Galloway Township, New Jersey
Current Conditions -  °F | °C
As of 1:54 AM on Thursday 27 Nov 2014 (Local Time) from KACY Reporting Station
Overcast Overcast  
Wind Chill: 28°   Ceiling: 2000
Heat Index: 36°   Visibility: 10mi
Dew Point: 34°   Wind: 12mph
Humidity: 93%   Direction: 280°W
Pressure: 29.94"   Gusts: NA
Location:  39.473°N, 74.4957°W
Report Text: KACY 270654Z 28010KT 10SM OVC020 02/01 A2994 RMK AO2 SLP137 T00220011
Loading
Personal Weather Stations






























Interactive Weather Map New forecast layout! Learn more

10-Day Weather Forecast

Advertisements
Track Severe Weather on mobile